Midway, Indiana
Current Conditions -  °F | °C
As of 4:54 PM on Friday 28 Nov 2014 (Local Time) from KEVV Reporting Station
Clear Clear  
Wind Chill: 36°   Ceiling: Unl
Heat Index: 42°   Visibility: 10mi
Dew Point: 26°   Wind: 10mph
Humidity: 53%   Direction: 170°S
Pressure: 30.11"   Gusts: NA
Location:  38.0544°N, 87.2562°W
Report Text: KEVV 282254Z 17009KT 10SM CLR 06/M03 A3011 RMK AO2 SLP199 T00561033
Loading
Personal Weather Stations






























Interactive Weather Map New forecast layout! Learn more

10-Day Weather Forecast

Advertisements
Track Severe Weather on mobile